Time;durP1;ratioP1;P1;durP2;ratioP2;P2;SDS_P1;SDS_P2;PMS_P1;PMS_P2;Temp;Humidity;BMP_temperature;BMP_pressure;BME280_temperature;BME280_humidity;BME280_pressure;Samples;Min_cycle;Max_cycle;Signal;HPM_P1;HPM_P2
2023/07/23 00:00:36;;;;;;;;;;;;;;;14.32;100.00;100904.47;4977266;28;19929;-74
2023/07/23 00:03:02;;;;;;;;;;;;;;;14.32;100.00;100904.47;4961180;28;20283;-73
2023/07/23 00:05:27;;;;;;;;;;;;;;;14.19;100.00;100900.22;4970441;28;19964;-73
2023/07/23 00:07:54;;;;;;;;;;;;;;;14.19;100.00;100899.38;4991238;28;19926;-73
2023/07/23 00:10:19;;;;;;;;;;;;;;;14.22;100.00;100897.25;4973989;28;20372;-73
2023/07/23 00:12:45;;;;;;;;;;;;;;;14.23;100.00;100898.09;4961518;28;19936;-73
2023/07/23 00:15:11;;;;;;;;;;;;;;;14.25;100.00;100888.00;4978492;28;19935;-73
2023/07/23 00:17:36;;;;;;;;;;;;;;;14.21;100.00;100884.75;4979629;28;20297;-73
2023/07/23 00:20:03;;;;;;;;;;;;;;;14.27;100.00;100886.00;4959786;28;19921;-73
2023/07/23 00:22:29;;;;;;;;;;;;;;;14.27;100.00;100877.06;4977889;28;19925;-73
2023/07/23 00:24:56;;;;;;;;;;;;;;;14.30;100.00;100879.50;4975567;28;20377;-72
2023/07/23 00:27:22;;;;;;;;;;;;;;;14.32;100.00;100874.78;4993666;28;19925;-72
2023/07/23 00:29:47;;;;;;;;;;;;;;;14.35;100.00;100867.25;4993445;28;20285;-73
2023/07/23 00:32:12;;;;;;;;;;;;;;;14.30;100.00;100860.59;4990764;28;19961;-73
2023/07/23 00:34:37;;;;;;;;;;;;;;;14.33;100.00;100861.13;4989915;28;20036;-73
2023/07/23 00:37:03;;;;;;;;;;;;;;;14.34;100.00;100860.16;4994642;28;19928;-72
2023/07/23 00:39:28;;;;;;;;;;;;;;;14.30;100.00;100853.31;4972840;28;19975;-73
2023/07/23 00:41:54;;;;;;;;;;;;;;;14.29;100.00;100854.31;4973847;28;19925;-73
2023/07/23 00:44:19;;;;;;;;;;;;;;;14.29;100.00;100846.22;4992931;28;20024;-72
2023/07/23 00:46:44;;;;;;;;;;;;;;;14.37;100.00;100831.97;4972605;28;20691;-72
2023/07/23 00:49:10;;;;;;;;;;;;;;;14.38;100.00;100837.25;4976498;28;19932;-73
2023/07/23 00:51:35;;;;;;;;;;;;;;;14.39;100.00;100836.25;4960921;28;19925;-72
2023/07/23 00:54:01;;;;;;;;;;;;;;;14.40;100.00;100832.56;5006781;28;20253;-73
2023/07/23 00:56:26;;;;;;;;;;;;;;;14.45;100.00;100824.03;4973119;28;19937;-72
2023/07/23 00:58:51;;;;;;;;;;;;;;;14.50;100.00;100829.84;4961088;28;19928;-72
2023/07/23 01:01:18;;;;;;;;;;;;;;;14.50;100.00;100818.16;4969063;28;19926;-72
2023/07/23 01:03:43;;;;;;;;;;;;;;;14.49;100.00;100813.75;4960554;28;20391;-72
2023/07/23 01:06:08;;;;;;;;;;;;;;;14.47;100.00;100811.22;4958811;28;20055;-71
2023/07/23 01:08:33;;;;;;;;;;;;;;;14.40;100.00;100800.16;4969829;28;19925;-72
2023/07/23 01:10:59;;;;;;;;;;;;;;;14.43;100.00;100806.25;4953903;28;19935;-72
2023/07/23 01:13:24;;;;;;;;;;;;;;;14.37;100.00;100796.88;4971456;28;19929;-73
2023/07/23 01:15:49;;;;;;;;;;;;;;;14.38;100.00;100794.03;4971481;28;19996;-73
2023/07/23 01:18:15;;;;;;;;;;;;;;;14.36;100.00;100792.47;4969358;28;20029;-73
2023/07/23 01:20:40;;;;;;;;;;;;;;;14.33;100.00;100788.22;4970637;28;19993;-72
2023/07/23 01:23:05;;;;;;;;;;;;;;;14.32;100.00;100780.25;4957718;28;20008;-73
2023/07/23 01:25:30;;;;;;;;;;;;;;;14.30;100.00;100779.56;4971530;28;19964;-73
2023/07/23 01:27:56;;;;;;;;;;;;;;;14.32;100.00;100774.84;4956310;28;20044;-72
2023/07/23 01:30:21;;;;;;;;;;;;;;;14.27;100.00;100771.75;4954643;28;19977;-74
2023/07/23 01:32:47;;;;;;;;;;;;;;;14.23;100.00;100769.34;4969546;28;20012;-72
2023/07/23 01:35:14;;;;;;;;;;;;;;;14.25;100.00;100755.69;5000161;28;19929;-72
2023/07/23 01:37:39;;;;;;;;;;;;;;;14.25;100.00;100750.28;4969680;28;19925;-72
2023/07/23 01:40:04;;;;;;;;;;;;;;;14.25;100.00;100750.28;4968784;28;20412;-72
2023/07/23 01:42:31;;;;;;;;;;;;;;;14.27;100.00;100742.88;4971630;28;20351;-72
2023/07/23 01:44:59;;;;;;;;;;;;;;;14.28;100.00;100750.00;4971225;28;20292;-72
2023/07/23 01:47:24;;;;;;;;;;;;;;;14.31;100.00;100743.44;4955987;28;19932;-72
2023/07/23 01:49:50;;;;;;;;;;;;;;;14.31;100.00;100732.63;4955523;28;19925;-72
2023/07/23 01:52:15;;;;;;;;;;;;;;;14.32;100.00;100731.63;4956756;28;20006;-72
2023/07/23 01:54:40;;;;;;;;;;;;;;;14.29;100.00;100732.78;4954565;28;20012;-72
2023/07/23 01:57:05;;;;;;;;;;;;;;;14.30;100.00;100731.78;4967646;28;20466;-73
2023/07/23 01:59:31;;;;;;;;;;;;;;;14.30;100.00;100725.56;4983082;28;20244;-73
2023/07/23 02:01:56;;;;;;;;;;;;;;;14.32;100.00;100723.53;5003369;28;19929;-73
2023/07/23 02:04:21;;;;;;;;;;;;;;;14.32;100.00;100720.84;5002538;28;19961;-73
2023/07/23 02:06:46;;;;;;;;;;;;;;;14.32;100.00;100713.59;4954908;28;19988;-72
2023/07/23 02:09:11;;;;;;;;;;;;;;;14.32;100.00;100708.19;4969847;28;20051;-72
2023/07/23 02:11:37;;;;;;;;;;;;;;;14.29;100.00;100702.25;4952493;28;19926;-72
2023/07/23 02:14:02;;;;;;;;;;;;;;;14.27;100.00;100696.97;4956621;28;19925;-72
2023/07/23 02:16:27;;;;;;;;;;;;;;;14.30;100.00;100694.00;4971254;28;19935;-72
2023/07/23 02:18:52;;;;;;;;;;;;;;;14.25;100.00;100686.34;4998639;28;20218;-73
2023/07/23 02:21:18;;;;;;;;;;;;;;;14.27;100.00;100683.47;4999985;28;19921;-72
2023/07/23 02:23:44;;;;;;;;;;;;;;;14.28;100.00;100682.47;4967117;28;19925;-73
2023/07/23 02:26:10;;;;;;;;;;;;;;;14.35;100.00;100683.59;4971282;28;19964;-72
2023/07/23 02:28:35;;;;;;;;;;;;;;;14.29;100.00;100676.09;4988050;28;20004;-73
2023/07/23 02:31:00;;;;;;;;;;;;;;;14.33;100.00;100669.41;5001969;28;19990;-72
2023/07/23 02:33:25;;;;;;;;;;;;;;;14.28;100.00;100679.78;4957960;28;19999;-72
2023/07/23 02:35:51;;;;;;;;;;;;;;;14.29;100.00;100673.38;4956246;28;19975;-72
2023/07/23 02:38:16;;;;;;;;;;;;;;;14.29;100.00;100670.69;4970900;28;20355;-72
2023/07/23 02:40:41;;;;;;;;;;;;;;;14.32;100.00;100667.69;4973760;28;19925;-72
2023/07/23 02:43:09;;;;;;;;;;;;;;;14.28;100.00;100663.56;4973858;28;20297;-73
2023/07/23 02:45:34;;;;;;;;;;;;;;;14.32;100.00;100656.03;4974972;28;19968;-73
2023/07/23 02:48:00;;;;;;;;;;;;;;;14.31;100.00;100655.19;4972545;28;20008;-72
2023/07/23 02:50:25;;;;;;;;;;;;;;;14.32;100.00;100654.19;4958427;28;19926;-72
2023/07/23 02:52:51;;;;;;;;;;;;;;;14.34;100.00;100654.88;4994305;28;19927;-73
2023/07/23 02:55:16;;;;;;;;;;;;;;;14.31;100.00;100644.38;5002267;28;20196;-72
2023/07/23 02:57:41;;;;;;;;;;;;;;;14.35;100.00;100642.22;4988827;28;19933;-73
2023/07/23 03:00:07;;;;;;;;;;;;;;;14.38;100.00;100645.50;4987145;28;20253;-72
2023/07/23 03:02:33;;;;;;;;;;;;;;;14.36;100.00;100644.78;4960713;28;19958;-72
2023/07/23 03:04:58;;;;;;;;;;;;;;;14.33;100.00;100642.38;4988108;28;20059;-73
2023/07/23 03:07:23;;;;;;;;;;;;;;;14.36;100.00;100642.09;4960960;28;19929;-73
2023/07/23 03:09:48;;;;;;;;;;;;;;;14.41;100.00;100633.53;4974676;28;20273;-72
2023/07/23 03:12:14;;;;;;;;;;;;;;;14.39;100.00;100641.78;4968070;28;20351;-73
2023/07/23 03:14:39;;;;;;;;;;;;;;;14.40;100.00;100632.69;4960181;28;20248;-73
2023/07/23 03:17:04;;;;;;;;;;;;;;;14.39;100.00;100633.69;4957005;28;20325;-73
2023/07/23 03:19:29;;;;;;;;;;;;;;;14.39;100.00;100633.69;4972339;28;19926;-73
2023/07/23 03:21:54;;;;;;;;;;;;;;;14.36;100.00;100633.13;4958740;28;20042;-76
2023/07/23 03:24:20;;;;;;;;;;;;;;;14.39;100.00;100631.00;4987520;28;19922;-74
2023/07/23 03:26:45;;;;;;;;;;;;;;;14.43;100.00;100630.69;5004819;28;19967;-75
2023/07/23 03:29:10;;;;;;;;;;;;;;;14.45;100.00;100628.66;4959298;28;19953;-73
2023/07/23 03:31:35;;;;;;;;;;;;;;;14.44;100.00;100624.25;4994443;28;19921;-73
2023/07/23 03:34:00;;;;;;;;;;;;;;;14.43;100.00;100622.59;4989487;28;20004;-73
2023/07/23 03:36:27;;;;;;;;;;;;;;;14.48;100.00;100615.72;4975493;28;20408;-73
2023/07/23 03:38:52;;;;;;;;;;;;;;;14.52;100.00;100610.88;4968829;28;19933;-74
2023/07/23 03:41:17;;;;;;;;;;;;;;;14.50;100.00;100616.44;4966605;28;19937;-73
2023/07/23 03:43:43;;;;;;;;;;;;;;;14.57;100.00;100608.56;4967601;28;19925;-74
2023/07/23 03:46:08;;;;;;;;;;;;;;;14.54;100.00;100611.56;4961481;28;19929;-73
2023/07/23 03:48:33;;;;;;;;;;;;;;;14.59;100.00;100616.50;4964553;28;19925;-73
2023/07/23 03:50:58;;;;;;;;;;;;;;;14.57;100.00;100605.88;4977831;28;19936;-75
2023/07/23 03:53:23;;;;;;;;;;;;;;;14.60;100.00;100607.41;4962941;28;20028;-73
2023/07/23 03:55:49;;;;;;;;;;;;;;;14.64;100.00;100598.84;4963947;28;19975;-75
2023/07/23 03:58:14;;;;;;;;;;;;;;;14.71;100.00;100599.13;4978330;28;19925;-75
2023/07/23 04:00:40;;;;;;;;;;;;;;;14.85;100.00;100598.59;4973868;28;19925;-77
2023/07/23 04:03:06;;;;;;;;;;;;;;;14.84;100.00;100596.88;4960542;28;19926;-78
2023/07/23 04:05:31;;;;;;;;;;;;;;;14.95;100.00;100594.97;4956860;28;19929;-77
2023/07/23 04:07:56;;;;;;;;;;;;;;;14.88;100.00;100594.75;4975199;28;19928;-77
2023/07/23 04:10:21;;;;;;;;;;;;;;;14.85;100.00;100590.47;4952195;28;19928;-77
2023/07/23 04:12:47;;;;;;;;;;;;;;;14.94;100.00;100593.28;4988063;28;19964;-75
2023/07/23 04:15:12;;;;;;;;;;;;;;;15.00;100.00;100596.19;4998623;28;20400;-78
2023/07/23 04:17:37;;;;;;;;;;;;;;;15.05;100.00;100592.19;4985608;28;19929;-79
2023/07/23 04:20:03;;;;;;;;;;;;;;;15.11;100.00;100589.69;4960179;28;20331;-77
2023/07/23 04:22:28;;;;;;;;;;;;;;;15.18;100.00;100595.38;4959041;28;20244;-78
2023/07/23 04:24:53;;;;;;;;;;;;;;;15.25;100.00;100592.88;4973842;28;20024;-78
2023/07/23 04:27:18;;;;;;;;;;;;;;;15.36;100.00;100583.66;4972177;28;20071;-79
2023/07/23 04:29:44;;;;;;;;;;;;;;;15.32;100.00;100593.09;4953493;28;19981;-76
2023/07/23 04:32:09;;;;;;;;;;;;;;;15.29;100.00;100586.97;4968279;28;19992;-76
2023/07/23 04:34:34;;;;;;;;;;;;;;;15.30;100.00;100582.44;4953124;28;20014;-79
2023/07/23 04:37:00;;;;;;;;;;;;;;;15.39;100.00;100594.16;4970884;28;19986;-77
2023/07/23 04:39:25;;;;;;;;;;;;;;;15.37;100.00;100590.78;4986759;28;19961;-73
2023/07/23 04:41:50;;;;;;;;;;;;;;;15.43;100.00;100593.69;4969139;28;20052;-76
2023/07/23 04:44:15;;;;;;;;;;;;;;;15.48;100.00;100589.66;4969123;28;19935;-80
2023/07/23 04:46:40;;;;;;;;;;;;;;;15.46;100.00;100592.53;4998379;28;19932;-75
2023/07/23 04:49:06;;;;;;;;;;;;;;;15.51;100.00;100592.06;4956010;28;19925;-79
2023/07/23 04:51:31;;;;;;;;;;;;;;;15.55;100.00;100588.88;4956723;28;19921;-74
2023/07/23 04:53:56;;;;;;;;;;;;;;;15.55;100.00;100590.75;4970165;28;20162;-75
2023/07/23 04:56:21;;;;;;;;;;;;;;;15.57;100.00;100592.25;4970615;28;19964;-72
2023/07/23 04:58:46;;;;;;;;;;;;;;;15.63;100.00;100590.78;4982446;28;20156;-77
2023/07/23 05:01:12;;;;;;;;;;;;;;;15.63;100.00;100585.34;4952945;28;19973;-75
2023/07/23 05:03:37;;;;;;;;;;;;;;;15.67;100.00;100592.16;4953806;28;20016;-79
2023/07/23 05:06:03;;;;;;;;;;;;;;;15.68;100.00;100585.75;4979240;28;19925;-74
2023/07/23 05:08:28;;;;;;;;;;;;;;;15.78;100.00;100588.34;4959471;28;20368;-82
2023/07/23 05:10:57;;;;;;;;;;;;;;;15.80;100.00;100585.47;4974526;28;20277;-77
2023/07/23 05:13:22;;;;;;;;;;;;;;;15.74;100.00;100582.41;4971596;28;20043;-79
2023/07/23 05:15:48;;;;;;;;;;;;;;;15.81;100.00;100582.59;4974257;28;19969;-72
2023/07/23 05:18:13;;;;;;;;;;;;;;;15.74;100.00;100585.09;4989492;28;20097;-72
2023/07/23 05:20:38;;;;;;;;;;;;;;;15.80;100.00;100590.91;4988470;28;19979;-73
2023/07/23 05:23:03;;;;;;;;;;;;;;;15.78;100.00;100580.22;5002997;28;19933;-73
2023/07/23 05:25:28;;;;;;;;;;;;;;;15.74;100.00;100581.56;4991463;28;19929;-77
2023/07/23 05:27:54;;;;;;;;;;;;;;;15.74;100.00;100585.09;4960440;28;20395;-77
2023/07/23 05:30:20;;;;;;;;;;;;;;;15.72;100.00;100586.28;4960392;28;19984;-76
2023/07/23 05:32:45;;;;;;;;;;;;;;;15.65;100.00;100587.94;4958428;28;19926;-77
2023/07/23 05:35:12;;;;;;;;;;;;;;;15.69;100.00;100583.91;4957455;28;20330;-74
2023/07/23 05:37:37;;;;;;;;;;;;;;;15.74;100.00;100581.56;4971382;28;20406;-80
2023/07/23 05:40:03;;;;;;;;;;;;;;;15.71;100.00;100587.28;4991327;28;19926;-79
2023/07/23 05:42:28;;;;;;;;;;;;;;;15.73;100.00;100583.41;4984433;28;19926;-72
2023/07/23 05:44:53;;;;;;;;;;;;;;;15.70;100.00;100588.31;4982819;28;19933;-78
2023/07/23 05:47:19;;;;;;;;;;;;;;;15.64;100.00;100591.63;4959819;28;20143;-76
2023/07/23 05:49:44;;;;;;;;;;;;;;;15.62;100.00;100591.81;5003554;28;19995;-73
2023/07/23 05:52:09;;;;;;;;;;;;;;;15.60;100.00;100588.41;4973106;28;20019;-82
2023/07/23 05:54:34;;;;;;;;;;;;;;;15.48;100.00;100586.97;4960095;28;19925;-79
2023/07/23 05:57:00;;;;;;;;;;;;;;;15.45;100.00;100585.44;4976295;28;20019;-76
2023/07/23 05:59:25;;;;;;;;;;;;;;;15.45;100.00;100591.69;4961596;28;19925;-77
2023/07/23 06:01:50;;;;;;;;;;;;;;;15.55;100.00;100588.03;4961444;28;20704;-77
2023/07/23 06:04:16;;;;;;;;;;;;;;;15.56;100.00;100587.84;4986740;28;20265;-74
2023/07/23 06:06:41;;;;;;;;;;;;;;;15.53;100.00;100585.47;4973897;28;20425;-81
2023/07/23 06:09:06;;;;;;;;;;;;;;;15.55;100.00;100588.03;4985926;28;20292;-75
2023/07/23 06:11:31;;;;;;;;;;;;;;;15.52;100.00;100588.34;4974853;28;19972;-75
2023/07/23 06:13:57;;;;;;;;;;;;;;;15.51;100.00;100578.53;4967565;28;19926;-73
2023/07/23 06:16:23;;;;;;;;;;;;;;;15.39;100.00;100580.66;4982984;28;19935;-76
2023/07/23 06:18:48;;;;;;;;;;;;;;;15.28;100.00;100587.16;4957918;28;20387;-75
2023/07/23 06:21:13;;;;;;;;;;;;;;;15.30;100.00;100580.56;4951806;28;20754;-76
2023/07/23 06:23:38;;;;;;;;;;;;;;;15.32;100.00;100579.56;4974333;28;19944;-78
2023/07/23 06:26:03;;;;;;;;;;;;;;;15.24;100.00;100586.59;4970739;28;19925;-74
2023/07/23 06:28:29;;;;;;;;;;;;;;;15.21;100.00;100586.06;4973976;28;20450;-74
2023/07/23 06:30:54;;;;;;;;;;;;;;;15.22;100.00;100591.34;4975424;28;19929;-74
2023/07/23 06:33:19;;;;;;;;;;;;;;;15.14;100.00;100594.81;4970667;28;19929;-74
2023/07/23 06:35:45;;;;;;;;;;;;;;;15.08;100.00;100605.41;4970200;28;19964;-72
2023/07/23 06:38:10;;;;;;;;;;;;;;;15.06;100.00;100591.19;4971379;28;19929;-70
2023/07/23 06:40:35;;;;;;;;;;;;;;;15.02;100.00;100606.00;4958647;28;19929;-72
2023/07/23 06:43:01;;;;;;;;;;;;;;;14.95;100.00;100595.84;4968597;28;19935;-76
2023/07/23 06:45:26;;;;;;;;;;;;;;;14.86;100.00;100607.56;4963934;28;19942;-76
2023/07/23 06:47:51;;;;;;;;;;;;;;;14.73;100.00;100618.75;4960911;28;19980;-73
2023/07/23 06:50:18;;;;;;;;;;;;;;;14.68;100.00;100616.50;4971836;28;19930;-73
2023/07/23 06:52:43;;;;;;;;;;;;;;;14.66;100.00;100621.19;4963570;28;19925;-75
2023/07/23 06:55:08;;;;;;;;;;;;;;;14.69;100.00;100633.56;4969815;28;20324;-74
2023/07/23 06:57:33;;;;;;;;;;;;;;;14.64;100.00;100628.59;4987310;28;20020;-72
2023/07/23 06:59:59;;;;;;;;;;;;;;;14.67;100.00;100624.72;4973348;28;19936;-77
2023/07/23 07:02:24;;;;;;;;;;;;;;;14.68;100.00;100629.13;4983157;28;19926;-74
2023/07/23 07:04:51;;;;;;;;;;;;;;;14.80;100.00;100630.66;4970890;28;20029;-77
2023/07/23 07:07:16;;;;;;;;;;;;;;;14.85;100.00;100630.19;4956657;28;19929;-73
2023/07/23 07:09:41;;;;;;;;;;;;;;;15.03;100.00;100634.75;4988022;28;20565;-73
2023/07/23 07:12:06;;;;;;;;;;;;;;;15.19;100.00;100625.94;4986884;28;19995;-81
2023/07/23 07:14:49;;;;;;;;;;;;;;;15.19;100.00;100631.34;5043151;27;19975;-74
2023/07/23 07:17:14;;;;;;;;;;;;;;;15.13;100.00;100632.81;5053912;28;20303;-77
2023/07/23 07:19:40;;;;;;;;;;;;;;;15.17;100.00;100636.94;5046669;28;19968;-74
2023/07/23 07:22:05;;;;;;;;;;;;;;;15.06;100.00;100626.31;5021038;28;19920;-79
2023/07/23 07:24:30;;;;;;;;;;;;;;;15.03;100.00;100649.13;5036809;28;19921;-74
2023/07/23 07:26:55;;;;;;;;;;;;;;;15.06;100.00;100637.16;5039419;28;19964;-74
2023/07/23 07:29:21;;;;;;;;;;;;;;;14.99;100.00;100635.03;5060761;28;19959;-80
2023/07/23 07:31:48;;;;;;;;;;;;;;;14.99;100.00;100642.31;5057479;28;20016;-74
2023/07/23 07:34:13;;;;;;;;;;;;;;;14.89;100.00;100636.13;5051318;28;20026;-79
2023/07/23 07:36:38;;;;;;;;;;;;;;;14.85;100.00;100649.09;5040012;28;20035;-75
2023/07/23 07:39:04;;;;;;;;;;;;;;;14.48;100.00;100642.75;5016811;28;21421;-74
2023/07/23 07:41:29;;;;;;;;;;;;;;;14.48;100.00;100653.56;5022370;28;20019;-72
2023/07/23 07:43:54;;;;;;;;;;;;;;;14.40;100.00;100645.34;5056494;28;20051;-76
2023/07/23 07:46:20;;;;;;;;;;;;;;;14.45;100.00;100648.44;5056824;28;19925;-75
2023/07/23 07:48:46;;;;;;;;;;;;;;;14.40;100.00;100650.72;5053206;28;19975;-76
2023/07/23 07:51:11;;;;;;;;;;;;;;;14.30;100.00;100652.66;5035658;28;20059;-75
2023/07/23 07:53:37;;;;;;;;;;;;;;;14.32;100.00;100646.09;5024560;28;20748;-79
2023/07/23 07:56:02;;;;;;;;;;;;;;;14.24;100.00;100649.53;5037342;28;20013;-75
2023/07/23 07:58:27;;;;;;;;;;;;;;;14.33;100.00;100655.03;5023602;28;20033;-75
2023/07/23 08:00:56;;;;;;;;;;;;;;;14.31;100.00;100660.59;5038288;28;19988;-75
2023/07/23 08:03:28;;;;;;;;;;;;;;;14.37;100.00;100649.19;5050585;28;19921;-78
2023/07/23 08:05:53;;;;;;;;;;;;;;;14.39;100.00;100646.34;5053393;28;19921;-75
2023/07/23 08:08:19;;;;;;;;;;;;;;;14.38;100.00;100647.31;5036659;28;20427;-75
2023/07/23 08:10:45;;;;;;;;;;;;;;;14.47;100.00;100641.03;5056347;28;20412;-78
2023/07/23 08:13:11;;;;;;;;;;;;;;;14.61;100.00;100653.19;5034889;28;20284;-76
2023/07/23 08:15:36;;;;;;;;;;;;;;;14.73;100.00;100655.72;5041977;28;19925;-74
2023/07/23 08:18:01;;;;;;;;;;;;;;;14.78;100.00;100648.88;5050770;28;19932;-73
2023/07/23 08:20:27;;;;;;;;;;;;;;;14.81;100.00;100643.16;5047979;28;19940;-75
2023/07/23 08:22:53;;;;;;;;;;;;;;;14.96;100.00;100653.44;5019826;28;21285;-83
2023/07/23 08:25:19;;;;;;;;;;;;;;;14.98;100.00;100644.16;5013416;28;20352;-77
2023/07/23 08:27:44;;;;;;;;;;;;;;;14.94;100.00;100648.19;5039640;28;20427;-74
2023/07/23 08:30:09;;;;;;;;;;;;;;;14.97;100.00;100638.91;5043018;28;19943;-77
2023/07/23 08:32:34;;;;;;;;;;;;;;;15.10;100.00;100638.53;5017542;28;19960;-78
2023/07/23 08:35:00;;;;;;;;;;;;;;;14.99;100.00;100650.44;5024480;28;20079;-74
2023/07/23 08:37:25;;;;;;;;;;;;;;;14.99;100.00;100645.84;5042821;28;19925;-77
2023/07/23 08:39:50;;;;;;;;;;;;;;;15.04;100.00;100649.97;5013415;28;20276;-78
2023/07/23 08:42:21;;;;;;;;;;;;;;;14.98;100.00;100644.16;5010304;28;19999;-75
2023/07/23 08:44:49;;;;;;;;;;;;;;;15.05;100.00;100648.97;5011607;28;19926;-75
2023/07/23 08:47:15;;;;;;;;;;;;;;;15.10;100.00;100643.94;5011945;28;20300;-76
2023/07/23 08:49:41;;;;;;;;;;;;;;;15.10;100.00;100643.94;5021793;28;19924;-75
2023/07/23 08:52:06;;;;;;;;;;;;;;;15.18;100.00;100637.75;5024377;28;19957;-74
2023/07/23 08:54:31;;;;;;;;;;;;;;;15.28;100.00;100642.09;5037475;28;19971;-77
2023/07/23 08:56:57;;;;;;;;;;;;;;;15.29;100.00;100642.94;5024177;28;19925;-76
2023/07/23 08:59:22;;;;;;;;;;;;;;;15.38;100.00;100628.47;5042295;28;20003;-74
2023/07/23 09:01:47;;;;;;;;;;;;;;;15.43;100.00;100636.13;5002726;28;19925;-76
2023/07/23 09:04:13;;;;;;;;;;;;;;;15.46;100.00;100638.53;5041204;28;20350;-74
2023/07/23 09:06:39;;;;;;;;;;;;;;;15.53;100.00;100641.44;5041020;28;20375;-72
2023/07/23 09:09:08;;;;;;;;;;;;;;;15.65;100.00;100640.19;5025681;28;19964;-76
2023/07/23 09:11:34;;;;;;;;;;;;;;;15.53;100.00;100646.88;5041165;28;19931;-76
2023/07/23 09:14:00;;;;;;;;;;;;;;;15.49;100.00;100634.66;5034004;28;19929;-74
2023/07/23 09:16:25;;;;;;;;;;;;;;;15.54;100.00;100622.34;5020328;28;20550;-74
2023/07/23 09:18:50;;;;;;;;;;;;;;;15.62;100.00;100651.34;5045130;28;20443;-73
2023/07/23 09:21:22;;;;;;;;;;;;;;;15.61;100.00;100641.53;5003946;28;20564;-73
2023/07/23 09:23:50;;;;;;;;;;;;;;;15.64;100.00;100652.00;5036967;28;19928;-78
2023/07/23 09:26:17;;;;;;;;;;;;;;;15.67;100.00;100649.00;5027654;28;19927;-76
2023/07/23 09:28:42;;;;;;;;;;;;;;;15.77;100.00;100631.81;5005351;28;19917;-74
2023/07/23 09:31:10;;;;;;;;;;;;;;;15.85;100.00;100638.13;5033712;28;20458;-75
2023/07/23 09:33:35;;;;;;;;;;;;;;;15.87;100.00;100643.44;5020104;28;19925;-74
2023/07/23 09:36:02;;;;;;;;;;;;;;;15.91;100.00;100636.66;5038695;28;19943;-74
2023/07/23 09:38:28;;;;;;;;;;;;;;;15.91;100.00;100646.66;5040821;28;20230;-72
2023/07/23 09:40:54;;;;;;;;;;;;;;;15.65;100.00;100650.16;5045601;28;19920;-75
2023/07/23 09:43:20;;;;;;;;;;;;;;;15.60;100.00;100653.34;5025356;28;19971;-81
2023/07/23 09:45:46;;;;;;;;;;;;;;;15.40;100.00;100656.22;5050597;28;19921;-74
2023/07/23 09:48:11;;;;;;;;;;;;;;;15.44;100.00;100651.38;5044614;28;19952;-73
2023/07/23 09:50:36;;;;;;;;;;;;;;;15.47;100.00;100652.91;5010216;28;19944;-79
2023/07/23 09:53:01;;;;;;;;;;;;;;;15.42;100.00;100664.19;5050035;28;19965;-74
2023/07/23 09:55:26;;;;;;;;;;;;;;;15.31;100.00;100662.56;5049209;28;20137;-74
2023/07/23 09:57:52;;;;;;;;;;;;;;;15.29;100.00;100665.41;5046274;28;19921;-78
2023/07/23 10:00:18;;;;;;;;;;;;;;;15.24;100.00;100661.50;5021329;28;19921;-74
2023/07/23 10:02:43;;;;;;;;;;;;;;;15.29;100.00;100664.59;5037877;28;19921;-74
2023/07/23 10:05:09;;;;;;;;;;;;;;;15.28;100.00;100655.59;5036451;28;20326;-76
2023/07/23 10:07:35;;;;;;;;;;;;;;;15.42;100.00;100667.72;5030698;28;21292;-73
2023/07/23 10:10:00;;;;;;;;;;;;;;;15.36;100.00;100664.81;5038636;28;20140;-72
2023/07/23 10:12:25;;;;;;;;;;;;;;;15.34;100.00;100666.81;5039084;28;19932;-80
2023/07/23 10:14:50;;;;;;;;;;;;;;;15.41;100.00;100665.19;5026372;28;20123;-74
2023/07/23 10:17:16;;;;;;;;;;;;;;;15.40;100.00;100669.75;5009750;28;20019;-76
2023/07/23 10:19:41;;;;;;;;;;;;;;;15.27;100.00;100667.44;5008053;28;19975;-74
2023/07/23 10:22:06;;;;;;;;;;;;;;;15.34;100.00;100673.09;5028631;28;20020;-76
2023/07/23 10:24:38;;;;;;;;;;;;;;;15.26;100.00;100670.31;5031129;28;19928;-74
2023/07/23 10:27:09;;;;;;;;;;;;;;;15.22;100.00;100664.38;5010776;28;20019;-73
2023/07/23 10:29:34;;;;;;;;;;;;;;;15.19;100.00;100680.03;5012445;28;19925;-75
2023/07/23 10:32:20;;;;;;;;;;;;;;;15.19;100.00;100672.78;5005606;28;21319;-76
2023/07/23 10:34:46;;;;;;;;;;;;;;;15.14;100.00;100677.78;5008854;28;19925;-75
2023/07/23 10:37:14;;;;;;;;;;;;;;;15.15;100.00;100671.38;5009980;28;20244;-77
2023/07/23 10:39:39;;;;;;;;;;;;;;;15.12;100.00;100671.69;5010223;28;19932;-75
2023/07/23 10:42:04;;;;;;;;;;;;;;;15.17;100.00;100674.78;5009275;28;19921;-78
2023/07/23 10:44:30;;;;;;;;;;;;;;;15.20;100.00;100685.28;5025530;28;20565;-79
2023/07/23 10:46:58;;;;;;;;;;;;;;;15.23;100.00;100674.16;5006359;28;19929;-74
2023/07/23 10:49:26;;;;;;;;;;;;;;;15.25;100.00;100668.59;5006501;28;20263;-81
2023/07/23 10:51:52;;;;;;;;;;;;;;;15.29;100.00;100664.59;5006406;28;19924;-81
2023/07/23 10:54:20;;;;;;;;;;;;;;;15.37;100.00;100671.91;5016670;28;20377;-75
2023/07/23 10:56:47;;;;;;;;;;;;;;;15.38;100.00;100669.03;4994955;28;19975;-74
2023/07/23 10:59:13;;;;;;;;;;;;;;;15.37;100.00;100678.16;5027743;28;20016;-76
2023/07/23 11:01:43;;;;;;;;;;;;;;;15.39;100.00;100673.44;5008825;28;20303;-77
2023/07/23 11:04:12;;;;;;;;;;;;;;;15.35;100.00;100677.50;4990508;28;19921;-74
2023/07/23 11:06:41;;;;;;;;;;;;;;;15.32;100.00;100676.94;5014755;28;19917;-76
2023/07/23 11:09:12;;;;;;;;;;;;;;;15.36;100.00;100675.63;5012936;28;19948;-76
2023/07/23 11:11:39;;;;;;;;;;;;;;;15.43;100.00;100679.41;5011606;28;19927;-76
2023/07/23 11:14:16;;;;;;;;;;;;;;;15.56;100.00;100674.44;4994894;28;19925;-74
2023/07/23 11:16:41;;;;;;;;;;;;;;;15.70;100.00;100673.03;5020432;28;20047;-74
2023/07/23 11:19:07;;;;;;;;;;;;;;;15.76;100.00;100682.38;5011281;28;20028;-76
2023/07/23 11:21:32;;;;;;;;;;;;;;;15.87;100.00;100681.34;4982747;28;19946;-74
2023/07/23 11:23:59;;;;;;;;;;;;;;;15.88;100.00;100673.03;5012958;28;20380;-79
2023/07/23 11:26:24;;;;;;;;;;;;;;;16.06;100.00;100679.41;5031095;28;19931;-72
2023/07/23 11:28:50;;;;;;;;;;;;;;;16.18;100.00;100673.56;5015808;28;19921;-79
2023/07/23 11:31:16;;;;;;;;;;;;;;;16.34;100.00;100680.94;4988060;28;20413;-76
2023/07/23 11:33:41;;;;;;;;;;;;;;;16.43;100.00;100667.41;5006845;28;19925;-75
2023/07/23 11:36:08;;;;;;;;;;;;;;;16.71;100.00;100669.91;5005980;28;19923;-78
2023/07/23 11:38:33;;;;;;;;;;;;;;;16.84;100.00;100674.84;4979230;28;19925;-83
2023/07/23 11:41:00;;;;;;;;;;;;;;;16.96;100.00;100667.28;5028506;28;20267;-74
2023/07/23 11:43:25;;;;;;;;;;;;;;;17.31;100.00;100665.31;5010608;28;20078;-75
2023/07/23 11:45:51;;;;;;;;;;;;;;;17.60;100.00;100666.69;5027110;28;20443;-73
2023/07/23 11:48:20;;;;;;;;;;;;;;;17.77;100.00;100662.09;5026151;28;20327;-72
2023/07/23 11:50:45;;;;;;;;;;;;;;;17.92;100.00;100644.06;4998062;28;19925;-74
2023/07/23 11:53:10;;;;;;;;;;;;;;;18.07;100.00;100649.69;5006418;28;19975;-77
2023/07/23 11:55:36;;;;;;;;;;;;;;;18.12;100.00;100646.47;5007451;28;20169;-76
2023/07/23 11:58:01;;;;;;;;;;;;;;;17.80;100.00;100667.19;5030668;28;19921;-74
2023/07/23 12:00:27;;;;;;;;;;;;;;;17.79;100.00;100657.34;4992813;28;20198;-82
2023/07/23 12:02:53;;;;;;;;;;;;;;;17.83;100.00;100642.41;5030532;28;19920;-76
2023/07/23 12:05:18;;;;;;;;;;;;;;;17.88;100.00;100637.28;5028841;28;19921;-81
2023/07/23 12:07:44;;;;;;;;;;;;;;;17.94;100.00;100638.50;5013227;28;19921;-74
2023/07/23 12:10:11;;;;;;;;;;;;;;;18.08;100.00;100635.06;4990584;28;19921;-80
2023/07/23 12:12:36;;;;;;;;;;;;;;;18.07;100.00;100630.66;5012247;28;19924;-77
2023/07/23 12:15:05;;;;;;;;;;;;;;;18.07;100.00;100629.84;5012600;28;19965;-76
2023/07/23 12:17:30;;;;;;;;;;;;;;;18.09;100.00;100631.34;5009700;28;19920;-76
2023/07/23 12:19:55;;;;;;;;;;;;;;;18.04;100.00;100633.72;5007319;28;20289;-74